createdAt,value
2022-10-21T00:00:41.587Z,19.13
2022-10-21T00:03:09.473Z,19.57
2022-10-21T00:05:36.443Z,19.43
2022-10-21T00:08:03.618Z,19.97
2022-10-21T00:10:30.530Z,18.57
2022-10-21T00:12:57.523Z,19.73
2022-10-21T00:15:24.533Z,18.83
2022-10-21T00:17:51.464Z,19.90
2022-10-21T00:20:18.951Z,20.60
2022-10-21T00:22:46.083Z,20.70
2022-10-21T00:25:13.002Z,20.00
2022-10-21T00:27:40.367Z,22.20
2022-10-21T00:30:08.926Z,20.30
2022-10-21T00:32:36.224Z,21.00
2022-10-21T00:35:05.268Z,21.07
2022-10-21T00:37:33.376Z,20.00
2022-10-21T00:40:00.272Z,20.93
2022-10-21T00:42:43.790Z,23.40
2022-10-21T00:45:27.500Z,20.20
2022-10-21T00:48:00.946Z,20.20
2022-10-21T00:50:50.297Z,20.90
2022-10-21T00:53:18.468Z,22.30
2022-10-21T00:55:54.428Z,20.60
2022-10-21T00:58:25.664Z,20.47
2022-10-21T01:00:56.337Z,22.67
2022-10-21T01:03:26.139Z,23.23
2022-10-21T01:05:54.369Z,24.27
2022-10-21T01:08:21.345Z,22.60
2022-10-21T01:10:48.351Z,22.10
2022-10-21T01:13:52.499Z,22.47
2022-10-21T01:16:48.820Z,20.97
2022-10-21T01:19:58.090Z,22.90
2022-10-21T01:22:27.780Z,22.67
2022-10-21T01:24:59.922Z,21.63
2022-10-21T01:27:42.001Z,21.10
2022-10-21T01:30:16.629Z,21.87
2022-10-21T01:33:20.826Z,22.50
2022-10-21T01:35:50.505Z,20.87
2022-10-21T01:38:38.632Z,22.40
2022-10-21T01:41:21.038Z,22.23
2022-10-21T01:44:09.521Z,21.03
2022-10-21T01:46:52.700Z,21.10
2022-10-21T01:49:37.091Z,21.43
2022-10-21T01:52:04.943Z,23.63
2022-10-21T01:54:38.414Z,22.13
2022-10-21T01:57:08.118Z,21.93
2022-10-21T01:59:37.094Z,21.70
2022-10-21T02:02:06.892Z,23.40
2022-10-21T02:04:36.591Z,21.80
2022-10-21T02:07:03.654Z,21.10
2022-10-21T02:12:03.794Z,20.80
2022-10-21T02:14:52.250Z,20.67
2022-10-21T02:17:22.304Z,22.00
2022-10-21T02:19:49.613Z,21.67
2022-10-21T02:22:22.043Z,21.70
2022-10-21T02:25:31.903Z,21.73
2022-10-21T02:27:59.138Z,20.07
2022-10-21T02:30:27.458Z,20.17
2022-10-21T02:33:05.456Z,20.00
2022-10-21T02:35:46.413Z,20.17
2022-10-21T02:38:42.627Z,21.93
2022-10-21T02:41:13.646Z,22.43
2022-10-21T02:43:57.113Z,21.53
2022-10-21T02:46:25.101Z,21.77
2022-10-21T02:48:53.322Z,21.67
2022-10-21T02:51:20.544Z,21.67
2022-10-21T02:53:47.439Z,22.50
2022-10-21T02:56:14.492Z,21.07
2022-10-21T02:58:41.446Z,22.33
2022-10-21T03:01:08.421Z,20.37
2022-10-21T03:03:35.366Z,22.77
2022-10-21T03:06:02.314Z,21.47
2022-10-21T03:08:29.281Z,20.80
2022-10-21T03:10:56.590Z,20.80
2022-10-21T03:13:23.878Z,20.40
2022-10-21T03:15:51.432Z,21.30
2022-10-21T03:18:19.199Z,20.70
2022-10-21T03:20:50.324Z,22.07
2022-10-21T03:23:21.068Z,20.30
2022-10-21T03:25:48.254Z,22.37
2022-10-21T03:28:15.438Z,19.90
2022-10-21T03:30:42.414Z,21.07
2022-10-21T03:33:09.308Z,22.67
2022-10-21T03:35:36.294Z,20.50
2022-10-21T03:38:03.271Z,18.80
2022-10-21T03:40:30.549Z,20.50
2022-10-21T03:42:58.712Z,19.87
2022-10-21T03:45:26.513Z,20.17
2022-10-21T03:47:53.431Z,20.70
2022-10-21T03:50:23.642Z,21.17
2022-10-21T03:52:52.411Z,19.80
2022-10-21T03:55:20.905Z,19.50
2022-10-21T03:57:48.712Z,21.90
2022-10-21T04:00:16.633Z,21.33
2022-10-21T04:02:43.937Z,21.70
2022-10-21T04:05:11.251Z,20.10
2022-10-21T04:07:38.943Z,20.90
2022-10-21T04:10:07.436Z,22.60
2022-10-21T04:12:34.760Z,19.90
2022-10-21T04:15:01.784Z,19.63
2022-10-21T04:20:44.591Z,20.00
2022-10-21T04:23:11.605Z,20.60
2022-10-21T04:25:38.517Z,21.27
2022-10-21T04:28:05.463Z,21.53
2022-10-21T04:30:32.396Z,20.07
2022-10-21T04:32:59.387Z,20.13
2022-10-21T04:35:26.595Z,22.60
2022-10-21T04:37:53.702Z,20.80
2022-10-21T04:40:20.672Z,18.83
2022-10-21T04:42:49.529Z,22.37
2022-10-21T04:45:17.605Z,21.27
2022-10-21T04:47:44.738Z,20.43
2022-10-21T04:50:12.314Z,21.30
2022-10-21T04:52:39.822Z,19.90
2022-10-21T04:55:15.134Z,19.47
2022-10-21T04:57:42.761Z,20.83
2022-10-21T05:00:10.844Z,22.03
2022-10-21T05:02:38.063Z,20.20
2022-10-21T05:05:05.779Z,21.47
2022-10-21T05:07:32.756Z,19.57
2022-10-21T05:09:59.757Z,20.17
2022-10-21T05:12:26.675Z,21.70
2022-10-21T05:14:53.807Z,19.43
2022-10-21T05:17:21.031Z,21.43
2022-10-21T05:19:47.943Z,22.87
2022-10-21T05:22:15.063Z,22.93
2022-10-21T05:24:42.166Z,22.67
2022-10-21T05:27:09.197Z,22.80
2022-10-21T05:29:36.128Z,21.33
2022-10-21T05:32:03.150Z,21.53
2022-10-21T05:34:30.047Z,22.27
2022-10-21T05:36:57.096Z,20.97
2022-10-21T05:39:24.039Z,21.63
2022-10-21T05:41:50.992Z,20.83
2022-10-21T05:44:20.679Z,21.03
2022-10-21T05:46:47.818Z,21.40
2022-10-21T05:49:14.804Z,21.67
2022-10-21T05:51:41.975Z,21.30
2022-10-21T05:54:08.923Z,21.30
2022-10-21T05:56:35.930Z,21.67
2022-10-21T05:59:05.521Z,20.50
2022-10-21T06:01:36.286Z,21.70
2022-10-21T06:04:03.522Z,21.30
2022-10-21T06:06:30.540Z,21.40
2022-10-21T06:08:57.649Z,21.50
2022-10-21T06:11:24.953Z,21.70
2022-10-21T06:13:52.289Z,22.47
2022-10-21T06:16:19.283Z,22.70
2022-10-21T06:18:46.172Z,20.83
2022-10-21T06:21:13.180Z,20.43
2022-10-21T06:23:40.272Z,20.13
2022-10-21T06:26:13.871Z,22.37
2022-10-21T06:28:43.651Z,20.67
2022-10-21T06:31:18.246Z,20.90
2022-10-21T06:33:45.583Z,19.87
2022-10-21T06:36:12.564Z,20.10
2022-10-21T06:38:39.721Z,20.83
2022-10-21T06:41:13.103Z,21.10
2022-10-21T06:43:42.223Z,21.00
2022-10-21T06:46:12.971Z,18.93
2022-10-21T06:48:40.453Z,18.70
2022-10-21T06:51:17.637Z,17.90
2022-10-21T06:53:45.659Z,18.70
2022-10-21T06:56:18.425Z,19.03
2022-10-21T06:58:47.986Z,17.97
2022-10-21T07:01:47.982Z,18.80
2022-10-21T07:04:19.980Z,19.37
2022-10-21T07:06:47.130Z,19.53
2022-10-21T07:09:14.179Z,20.47
2022-10-21T07:11:41.214Z,18.97
2022-10-21T07:14:08.254Z,20.20
2022-10-21T07:16:36.870Z,20.07
2022-10-21T07:19:05.847Z,19.73
2022-10-21T07:21:33.087Z,20.30
2022-10-21T07:24:00.779Z,19.60
2022-10-21T07:26:31.495Z,19.60
2022-10-21T07:29:00.774Z,19.20
2022-10-21T07:31:31.838Z,17.80
2022-10-21T07:34:00.995Z,17.00
2022-10-21T07:36:31.777Z,18.30
2022-10-21T07:39:03.819Z,17.63
2022-10-21T07:41:44.668Z,17.03
2022-10-21T07:44:11.994Z,17.30
2022-10-21T07:46:40.833Z,16.40
2022-10-21T07:49:08.720Z,17.57
2022-10-21T07:51:35.677Z,16.73
2022-10-21T07:54:03.294Z,15.63
2022-10-21T07:56:37.398Z,17.73
2022-10-21T07:59:06.778Z,16.80
2022-10-21T08:01:36.363Z,16.30
2022-10-21T08:04:03.801Z,15.07
2022-10-21T08:06:30.769Z,16.80
2022-10-21T08:08:57.916Z,17.67
2022-10-21T08:11:31.863Z,16.93
2022-10-21T08:13:59.957Z,16.00
2022-10-21T08:16:27.523Z,17.20
2022-10-21T08:18:56.811Z,16.57
2022-10-21T08:21:23.723Z,15.00
2022-10-21T08:23:50.750Z,15.97
2022-10-21T08:26:17.810Z,15.53
2022-10-21T08:28:46.672Z,14.87
2022-10-21T08:31:19.596Z,13.93
2022-10-21T08:33:47.606Z,13.63
2022-10-21T08:36:25.968Z,14.40
2022-10-21T08:38:53.896Z,14.67
2022-10-21T08:41:29.705Z,13.70
2022-10-21T08:44:37.991Z,13.67
2022-10-21T08:47:17.548Z,15.13
2022-10-21T08:50:00.949Z,12.70
2022-10-21T08:52:39.235Z,12.53
2022-10-21T08:55:35.064Z,12.47
2022-10-21T08:58:03.508Z,11.87
2022-10-21T09:00:48.274Z,10.43
2022-10-21T09:03:15.187Z,11.10
2022-10-21T09:06:29.759Z,10.10
2022-10-21T09:09:11.960Z,10.60
2022-10-21T09:12:06.189Z,9.67
2022-10-21T09:15:30.042Z,9.47
2022-10-21T09:18:12.317Z,9.17
2022-10-21T09:21:06.662Z,8.33
2022-10-21T09:24:11.812Z,8.60
2022-10-21T09:26:44.891Z,7.90
2022-10-21T09:29:27.611Z,7.30
2022-10-21T09:32:15.470Z,7.57
2022-10-21T09:35:06.573Z,7.60
2022-10-21T09:37:40.161Z,7.43
2022-10-21T09:40:21.006Z,7.40
2022-10-21T09:42:56.046Z,7.23
2022-10-21T09:45:37.537Z,7.00
2022-10-21T09:48:19.942Z,8.37
2022-10-21T09:50:52.622Z,9.53
2022-10-21T09:53:28.684Z,7.70
2022-10-21T09:56:06.811Z,8.17
2022-10-21T09:58:42.249Z,7.50
2022-10-21T10:01:16.045Z,6.47
2022-10-21T10:03:49.968Z,6.57
2022-10-21T10:06:43.566Z,6.47
2022-10-21T10:09:29.381Z,5.90
2022-10-21T10:12:21.048Z,5.93
2022-10-21T10:14:48.741Z,5.77
2022-10-21T10:17:44.421Z,6.10
2022-10-21T10:20:20.600Z,4.90
2022-10-21T10:22:59.823Z,6.10
2022-10-21T10:25:35.758Z,4.90
2022-10-21T10:28:10.649Z,4.77
2022-10-21T10:30:43.529Z,4.47
2022-10-21T10:33:19.680Z,5.37
2022-10-21T10:36:05.605Z,5.73
2022-10-21T10:38:51.664Z,4.67
2022-10-21T10:41:19.290Z,5.10
2022-10-21T10:43:54.926Z,5.30
2022-10-21T10:46:34.066Z,5.88
2022-10-21T10:49:23.102Z,5.80
2022-10-21T10:52:30.421Z,5.13
2022-10-21T10:55:12.612Z,5.20
2022-10-21T10:57:58.559Z,4.83
2022-10-21T11:00:33.967Z,5.23
2022-10-21T11:03:07.902Z,5.20
2022-10-21T11:05:45.390Z,4.50
2022-10-21T11:08:23.435Z,4.90
2022-10-21T11:10:56.619Z,5.20
2022-10-21T11:13:25.122Z,5.53
2022-10-21T11:16:29.580Z,4.43
2022-10-21T11:19:15.242Z,5.70
2022-10-21T11:21:49.211Z,4.37
2022-10-21T11:24:45.532Z,4.47
2022-10-21T11:27:32.330Z,4.87
2022-10-21T11:30:19.681Z,4.60
2022-10-21T11:33:17.379Z,5.60
2022-10-21T11:36:40.283Z,4.60
2022-10-21T11:39:42.940Z,5.30
2022-10-21T11:42:23.154Z,4.90
2022-10-21T11:45:30.480Z,5.23
2022-10-21T11:48:40.241Z,4.53
2022-10-21T11:51:28.648Z,5.23
2022-10-21T11:54:37.353Z,4.90
2022-10-21T11:57:13.314Z,4.70
2022-10-21T12:00:04.923Z,4.67
2022-10-21T12:02:43.003Z,5.07
2022-10-21T12:05:44.612Z,5.63
2022-10-21T12:08:27.214Z,5.00
2022-10-21T12:11:06.067Z,5.20
2022-10-21T12:13:44.803Z,5.60
2022-10-21T12:16:27.531Z,4.60
2022-10-21T12:19:00.161Z,4.60
2022-10-21T12:21:34.773Z,4.70
2022-10-21T12:24:27.946Z,4.70
2022-10-21T12:27:19.601Z,4.53
2022-10-21T12:31:02.354Z,5.03
2022-10-21T12:33:45.559Z,5.17
2022-10-21T12:36:24.725Z,4.73
2022-10-21T12:38:57.737Z,4.80
2022-10-21T12:41:24.541Z,4.90
2022-10-21T12:44:01.810Z,5.13
2022-10-21T12:46:39.960Z,5.23
2022-10-21T12:49:30.529Z,4.27
2022-10-21T12:52:10.788Z,5.20
2022-10-21T12:54:43.628Z,4.70
2022-10-21T12:57:43.025Z,5.70
2022-10-21T13:00:27.111Z,4.90
2022-10-21T13:03:12.705Z,6.57
2022-10-21T13:05:39.591Z,5.23
2022-10-21T13:08:24.421Z,5.90
2022-10-21T13:11:03.937Z,5.40
2022-10-21T13:13:38.770Z,5.10
2022-10-21T13:16:20.796Z,5.13
2022-10-21T13:18:51.521Z,5.67
2022-10-21T13:21:29.455Z,4.70
2022-10-21T13:24:36.934Z,4.90
2022-10-21T13:30:00.787Z,5.03
2022-10-21T13:32:33.832Z,4.80
2022-10-21T13:35:20.855Z,4.90
2022-10-21T13:37:57.391Z,5.47
2022-10-21T13:40:31.856Z,5.90
2022-10-21T13:43:28.991Z,5.67
2022-10-21T13:46:32.879Z,4.90
2022-10-21T13:49:00.699Z,5.63
2022-10-21T13:51:35.761Z,5.57
2022-10-21T13:56:53.936Z,5.70
2022-10-21T13:59:34.615Z,6.20
2022-10-21T14:02:02.353Z,11.07
2022-10-21T14:04:42.560Z,8.10
2022-10-21T14:07:26.672Z,6.80
2022-10-21T14:09:58.671Z,5.90
2022-10-21T14:12:34.660Z,6.27
2022-10-21T14:15:39.051Z,6.27
2022-10-21T14:18:06.730Z,6.87
2022-10-21T14:20:37.246Z,6.47
2022-10-21T14:23:08.265Z,6.57
2022-10-21T14:25:35.667Z,6.20
2022-10-21T14:28:04.771Z,6.80
2022-10-21T14:30:36.774Z,6.10
2022-10-21T14:33:06.447Z,7.37
2022-10-21T14:35:33.494Z,6.60
2022-10-21T14:38:03.883Z,7.00
2022-10-21T14:40:36.611Z,7.27
2022-10-21T14:43:13.299Z,7.90
2022-10-21T14:45:50.521Z,7.40
2022-10-21T14:48:36.444Z,6.77
2022-10-21T14:51:21.220Z,7.30
2022-10-21T14:53:59.310Z,7.10
2022-10-21T14:56:34.268Z,7.03
2022-10-21T14:59:26.077Z,6.73
2022-10-21T15:01:53.281Z,7.73
2022-10-21T15:04:54.426Z,7.33
2022-10-21T15:07:33.895Z,7.13
2022-10-21T15:10:03.804Z,7.30
2022-10-21T15:12:53.908Z,6.80
2022-10-21T15:15:54.226Z,15.33
2022-10-21T15:18:47.730Z,8.67
2022-10-21T15:21:32.792Z,7.00
2022-10-21T15:24:00.744Z,7.30
2022-10-21T15:26:40.446Z,11.53
2022-10-21T15:29:13.873Z,7.50
2022-10-21T15:31:41.250Z,7.73
2022-10-21T15:34:15.958Z,6.70
2022-10-21T15:36:44.067Z,6.57
2022-10-21T15:39:11.888Z,6.57
2022-10-21T15:41:39.528Z,6.83
2022-10-21T15:44:28.917Z,6.23
2022-10-21T15:47:29.989Z,6.60
2022-10-21T15:49:57.149Z,5.53
2022-10-21T15:52:24.567Z,7.37
2022-10-21T15:54:57.220Z,5.87
2022-10-21T15:57:24.795Z,6.13
2022-10-21T15:59:53.094Z,6.27
2022-10-21T16:02:29.498Z,5.83
2022-10-21T16:04:56.500Z,5.50
2022-10-21T16:07:36.897Z,10.70
2022-10-21T16:10:29.346Z,11.73
2022-10-21T16:13:01.766Z,21.60
2022-10-21T16:15:29.925Z,23.43
2022-10-21T16:18:00.632Z,25.93
2022-10-21T16:20:35.564Z,23.50
2022-10-21T16:23:03.496Z,15.10
2022-10-21T16:25:34.151Z,6.80
2022-10-21T16:28:02.045Z,7.03
2022-10-21T16:30:36.789Z,12.83
2022-10-21T16:33:04.916Z,23.70
2022-10-21T16:35:31.870Z,9.70
2022-10-21T16:37:59.357Z,5.60
2022-10-21T16:40:31.556Z,5.20
2022-10-21T16:42:59.135Z,5.20
2022-10-21T16:45:32.091Z,4.73
2022-10-21T16:48:00.963Z,5.27
2022-10-21T16:50:46.049Z,5.00
2022-10-21T16:53:16.684Z,5.03
2022-10-21T16:55:43.964Z,6.78
2022-10-21T16:58:11.008Z,7.00
2022-10-21T17:00:38.105Z,6.40
2022-10-21T17:03:05.243Z,6.37
2022-10-21T17:05:32.195Z,6.80
2022-10-21T17:08:00.071Z,6.10
2022-10-21T17:10:31.873Z,6.27
2022-10-21T17:13:01.772Z,6.37
2022-10-21T17:15:37.072Z,6.40
2022-10-21T17:18:04.500Z,7.60
2022-10-21T17:20:34.886Z,6.82
2022-10-21T17:23:07.774Z,7.00
2022-10-21T17:25:38.133Z,5.97
2022-10-21T17:28:08.839Z,6.93
2022-10-21T17:30:36.127Z,7.53
2022-10-21T17:33:03.235Z,15.90
2022-10-21T17:35:30.276Z,12.40
2022-10-21T17:37:57.419Z,11.93
2022-10-21T17:40:27.356Z,9.70
2022-10-21T17:42:54.382Z,8.00
2022-10-21T17:45:22.463Z,9.87
2022-10-21T17:47:49.861Z,9.40
2022-10-21T17:50:23.172Z,8.97
2022-10-21T17:52:55.819Z,8.33
2022-10-21T17:55:23.455Z,8.30
2022-10-21T17:57:50.343Z,7.33
2022-10-21T18:00:17.518Z,8.80
2022-10-21T18:02:44.430Z,10.40
2022-10-21T18:05:11.521Z,10.63
2022-10-21T18:07:38.789Z,14.50
2022-10-21T18:10:07.198Z,10.70
2022-10-21T18:12:35.408Z,11.17
2022-10-21T18:15:02.870Z,10.90
2022-10-21T18:17:29.810Z,10.50
2022-10-21T18:19:56.797Z,10.47
2022-10-21T18:22:24.121Z,11.00
2022-10-21T18:24:52.718Z,11.20
2022-10-21T18:27:19.987Z,14.90
2022-10-21T18:29:47.133Z,17.77
2022-10-21T18:32:15.848Z,17.13
2022-10-21T18:34:42.931Z,17.90
2022-10-21T18:37:10.128Z,17.27
2022-10-21T18:39:37.112Z,16.60
2022-10-21T18:42:04.127Z,29.40
2022-10-21T18:44:31.101Z,24.03
2022-10-21T18:46:57.999Z,18.17
2022-10-21T18:49:25.066Z,12.50
2022-10-21T18:51:52.025Z,11.77
2022-10-21T18:54:19.016Z,10.33
2022-10-21T18:56:45.901Z,80.60
2022-10-21T18:59:14.339Z,137.57
2022-10-21T19:01:41.424Z,23.70
2022-10-21T19:04:09.059Z,43.17
2022-10-21T19:06:46.110Z,17.00
2022-10-21T19:09:22.634Z,17.97
2022-10-21T19:11:50.123Z,9.63
2022-10-21T19:14:17.583Z,15.10
2022-10-21T19:16:46.903Z,36.63
2022-10-21T19:19:15.603Z,14.43
2022-10-21T19:21:42.729Z,25.20
2022-10-21T19:24:10.519Z,11.70
2022-10-21T19:26:40.444Z,27.60
2022-10-21T19:29:17.741Z,18.93
2022-10-21T19:34:21.056Z,29.53
2022-10-21T19:36:48.611Z,12.33
2022-10-21T19:39:16.268Z,8.40
2022-10-21T19:41:43.334Z,24.23
2022-10-21T19:44:10.290Z,9.60
2022-10-21T19:46:37.560Z,14.10
2022-10-21T19:49:07.830Z,9.50
2022-10-21T19:51:35.634Z,9.63
2022-10-21T19:54:08.157Z,8.17
2022-10-21T19:56:35.755Z,24.13
2022-10-21T19:59:03.446Z,34.20
2022-10-21T20:01:33.059Z,17.10
2022-10-21T20:04:01.929Z,13.30
2022-10-21T20:06:35.254Z,13.50
2022-10-21T20:09:12.234Z,16.23
2022-10-21T20:11:40.866Z,8.87
2022-10-21T20:14:08.214Z,18.00
2022-10-21T20:16:43.643Z,7.93
2022-10-21T20:19:12.370Z,17.83
2022-10-21T20:21:39.896Z,13.70
2022-10-21T20:24:07.724Z,16.73
2022-10-21T20:26:34.729Z,23.37
2022-10-21T20:29:02.274Z,13.90
2022-10-21T20:31:30.388Z,22.73
2022-10-21T20:33:57.587Z,36.10
2022-10-21T20:36:28.475Z,95.37
2022-10-21T20:38:59.103Z,19.03
2022-10-21T20:41:33.491Z,7.10
2022-10-21T20:44:01.794Z,6.70
2022-10-21T20:46:32.384Z,6.47
2022-10-21T20:48:59.385Z,6.97
2022-10-21T20:51:29.433Z,7.07
2022-10-21T20:54:06.895Z,7.67
2022-10-21T20:56:39.779Z,7.40
2022-10-21T20:59:10.005Z,7.50
2022-10-21T21:01:41.767Z,6.97
2022-10-21T21:04:13.267Z,7.50
2022-10-21T21:06:44.626Z,6.70
2022-10-21T21:12:03.248Z,7.40
2022-10-21T21:14:30.994Z,7.90
2022-10-21T21:16:58.318Z,7.60
2022-10-21T21:19:25.926Z,7.07
2022-10-21T21:21:58.307Z,7.37
2022-10-21T21:24:25.309Z,7.30
2022-10-21T21:26:52.212Z,7.50
2022-10-21T21:29:21.418Z,8.53
2022-10-21T21:31:48.746Z,8.10
2022-10-21T21:34:15.750Z,7.60
2022-10-21T21:36:42.719Z,8.33
2022-10-21T21:39:11.490Z,7.63
2022-10-21T21:41:38.593Z,7.60
2022-10-21T21:44:06.227Z,7.80
2022-10-21T21:46:35.798Z,7.80
2022-10-21T21:49:06.441Z,7.40
2022-10-21T21:51:39.192Z,7.40
2022-10-21T21:54:07.983Z,6.90
2022-10-21T21:56:35.610Z,7.43
2022-10-21T21:59:02.971Z,7.30
2022-10-21T22:01:30.237Z,6.73
2022-10-21T22:03:57.796Z,6.70
2022-10-21T22:06:29.157Z,6.60
2022-10-21T22:08:56.622Z,6.87
2022-10-21T22:11:26.875Z,6.73
2022-10-21T22:13:53.936Z,7.33
2022-10-21T22:16:24.123Z,7.70
2022-10-21T22:18:51.416Z,8.90
2022-10-21T22:21:18.980Z,7.90
2022-10-21T22:23:47.639Z,7.57
2022-10-21T22:26:16.038Z,7.80
2022-10-21T22:28:44.155Z,7.03
2022-10-21T22:31:15.148Z,7.10
2022-10-21T22:36:11.295Z,7.30
2022-10-21T22:38:38.239Z,7.60
2022-10-21T22:41:09.825Z,7.30
2022-10-21T22:43:39.148Z,6.73
2022-10-21T22:48:53.096Z,7.40
2022-10-21T22:51:20.811Z,6.90
2022-10-21T22:53:53.481Z,7.80
2022-10-21T22:56:24.549Z,8.60
2022-10-21T22:58:51.649Z,7.83
2022-10-21T23:01:18.795Z,7.77
2022-10-21T23:03:45.767Z,7.40
2022-10-21T23:06:12.707Z,8.10
2022-10-21T23:08:39.713Z,7.40
2022-10-21T23:11:06.852Z,7.57
2022-10-21T23:13:33.749Z,7.97
2022-10-21T23:16:00.770Z,7.40
2022-10-21T23:18:28.020Z,8.83
2022-10-21T23:20:55.023Z,8.50
2022-10-21T23:23:22.151Z,10.00
2022-10-21T23:25:49.299Z,10.87
2022-10-21T23:30:44.314Z,9.10
2022-10-21T23:33:11.371Z,8.17
2022-10-21T23:35:38.343Z,7.43
2022-10-21T23:38:05.551Z,6.93
2022-10-21T23:40:32.813Z,7.30
2022-10-21T23:42:59.691Z,5.33
2022-10-21T23:45:26.731Z,4.90
2022-10-21T23:47:56.585Z,6.67
2022-10-21T23:50:24.180Z,6.33
2022-10-21T23:52:51.087Z,6.57
2022-10-21T23:55:18.801Z,6.30
2022-10-21T23:57:46.009Z,6.70
